Time;durP1;ratioP1;P1;durP2;ratioP2;P2;SDS_P1;SDS_P2;PMS_P1;PMS_P2;Temp;Humidity;BMP_temperature;BMP_pressure;BME280_temperature;BME280_humidity;BME280_pressure;Samples;Min_cycle;Max_cycle;Signal;HPM_P1;HPM_P2
2022/10/02 00:01:04;;;;;;;6.40;2.92;;;;;;;;;;5031321;28;20071;-41
2022/10/02 00:03:32;;;;;;;4.80;3.17;;;;;;;;;;5031803;28;20026;-39
2022/10/02 00:06:01;;;;;;;4.82;2.67;;;;;;;;;;5031507;28;20096;-39
2022/10/02 00:08:32;;;;;;;7.10;2.97;;;;;;;;;;5030901;28;20175;-39
2022/10/02 00:11:18;;;;;;;5.32;3.25;;;;;;;;;;5031658;28;20103;-39
2022/10/02 00:13:50;;;;;;;3.85;2.70;;;;;;;;;;5031363;28;20018;-39
2022/10/02 00:16:30;;;;;;;5.63;3.15;;;;;;;;;;5031405;28;20025;-39
2022/10/02 00:18:55;;;;;;;14.13;5.47;;;;;;;;;;5030932;28;20022;-38
2022/10/02 00:21:26;;;;;;;3.95;3.13;;;;;;;;;;5031573;28;20527;-38
2022/10/02 00:23:56;;;;;;;4.80;3.30;;;;;;;;;;5030819;28;20087;-38
2022/10/02 00:26:33;;;;;;;4.63;3.13;;;;;;;;;;5030441;28;20021;-42
2022/10/02 00:28:58;;;;;;;7.25;4.07;;;;;;;;;;5031095;28;20052;-38
2022/10/02 00:31:33;;;;;;;6.77;5.40;;;;;;;;;;5031729;28;20033;-40
2022/10/02 00:34:20;;;;;;;5.22;4.28;;;;;;;;;;5014407;28;20267;-38
2022/10/02 00:37:04;;;;;;;6.93;4.82;;;;;;;;;;5010913;28;20100;-39
2022/10/02 00:39:35;;;;;;;5.05;4.55;;;;;;;;;;5011068;28;20121;-39
2022/10/02 00:42:16;;;;;;;7.15;3.75;;;;;;;;;;5011660;28;20465;-39
2022/10/02 00:44:41;;;;;;;8.18;4.00;;;;;;;;;;5011637;28;20026;-39
2022/10/02 00:47:22;;;;;;;5.50;3.67;;;;;;;;;;5011085;28;20025;-39
2022/10/02 00:49:47;;;;;;;4.63;3.65;;;;;;;;;;5010649;28;20275;-38
2022/10/02 00:52:33;;;;;;;9.20;3.97;;;;;;;;;;5011625;28;20032;-39
2022/10/02 00:55:10;;;;;;;5.18;4.18;;;;;;;;;;5011316;28;20487;-39
2022/10/02 00:57:40;;;;;;;5.00;4.13;;;;;;;;;;5011156;28;20018;-39
2022/10/02 01:00:23;;;;;;;8.65;4.22;;;;;;;;;;5009787;28;20026;-40
2022/10/02 01:02:58;;;;;;;4.78;3.80;;;;;;;;;;5011259;28;20367;-38
2022/10/02 01:05:24;;;;;;;4.88;3.58;;;;;;;;;;5011152;28;20025;-38
2022/10/02 01:07:51;;;;;;;4.85;4.10;;;;;;;;;;5010796;28;20018;-39
2022/10/02 01:10:17;;;;;;;6.57;3.35;;;;;;;;;;5010547;28;20065;-40
2022/10/02 01:12:43;;;;;;;8.27;4.00;;;;;;;;;;5011366;28;20461;-39
2022/10/02 01:15:19;;;;;;;4.50;3.70;;;;;;;;;;5011076;28;20014;-43
2022/10/02 01:17:46;;;;;;;9.63;4.20;;;;;;;;;;5010774;28;20379;-39
2022/10/02 01:20:13;;;;;;;6.55;3.92;;;;;;;;;;5010732;28;20021;-38
2022/10/02 01:22:48;;;;;;;5.20;3.70;;;;;;;;;;5010832;28;20017;-39
2022/10/02 01:25:13;;;;;;;4.72;3.05;;;;;;;;;;5010967;28;20022;-39
2022/10/02 01:27:38;;;;;;;6.60;4.00;;;;;;;;;;5011052;28;20084;-40
2022/10/02 01:30:06;;;;;;;5.93;3.92;;;;;;;;;;5010336;28;20108;-39
2022/10/02 01:32:32;;;;;;;8.07;4.03;;;;;;;;;;5016103;28;20018;-38
2022/10/02 01:34:59;;;;;;;7.25;4.57;;;;;;;;;;5033427;28;20372;-39
2022/10/02 01:37:26;;;;;;;5.18;3.65;;;;;;;;;;5033711;28;20063;-39
2022/10/02 01:39:51;;;;;;;6.75;3.70;;;;;;;;;;5034186;28;20025;-38
2022/10/02 01:42:17;;;;;;;7.95;3.88;;;;;;;;;;5033323;28;20025;-38
2022/10/02 01:44:43;;;;;;;7.57;3.70;;;;;;;;;;5033214;28;20040;-39
2022/10/02 01:47:10;;;;;;;6.47;3.97;;;;;;;;;;5033985;28;20025;-39
2022/10/02 01:49:54;;;;;;;5.82;3.55;;;;;;;;;;5033138;28;20037;-39
2022/10/02 01:52:38;;;;;;;6.90;3.53;;;;;;;;;;5034394;28;20022;-38
2022/10/02 01:55:22;;;;;;;6.35;4.13;;;;;;;;;;5034116;28;20017;-39
2022/10/02 01:57:50;;;;;;;8.00;3.90;;;;;;;;;;5033512;28;20087;-39
2022/10/02 02:00:17;;;;;;;6.30;4.05;;;;;;;;;;5033537;28;20032;-38
2022/10/02 02:02:45;;;;;;;10.63;3.85;;;;;;;;;;5033952;28;20074;-39
2022/10/02 02:05:22;;;;;;;6.13;3.65;;;;;;;;;;5033964;28;20528;-39
2022/10/02 02:07:51;;;;;;;6.43;4.10;;;;;;;;;;5033465;28;20028;-38
2022/10/02 02:10:17;;;;;;;4.90;3.60;;;;;;;;;;5033202;28;20520;-38
2022/10/02 02:12:44;;;;;;;6.43;4.10;;;;;;;;;;5033598;28;20129;-38
2022/10/02 02:15:17;;;;;;;8.60;3.78;;;;;;;;;;5033646;28;20041;-39
2022/10/02 02:17:47;;;;;;;7.30;3.95;;;;;;;;;;5033449;28;20480;-38
2022/10/02 02:20:15;;;;;;;6.55;4.15;;;;;;;;;;5033113;28;20068;-39
2022/10/02 02:22:43;;;;;;;6.68;4.15;;;;;;;;;;5033652;28;20036;-38
2022/10/02 02:25:11;;;;;;;10.88;4.05;;;;;;;;;;5032979;28;20021;-39
2022/10/02 02:27:39;;;;;;;5.63;4.15;;;;;;;;;;5033679;28;20487;-40
2022/10/02 02:30:06;;;;;;;5.68;4.22;;;;;;;;;;5032843;28;20021;-39
2022/10/02 02:32:33;;;;;;;5.00;3.95;;;;;;;;;;5028676;28;20018;-38
2022/10/02 02:35:03;;;;;;;6.03;4.50;;;;;;;;;;5013463;28;20033;-39
2022/10/02 02:37:30;;;;;;;4.82;3.78;;;;;;;;;;5013115;28;20101;-38
2022/10/02 02:39:57;;;;;;;6.03;3.92;;;;;;;;;;5012960;28;20461;-39
2022/10/02 02:42:24;;;;;;;5.90;3.47;;;;;;;;;;5013737;28;20094;-38
2022/10/02 02:45:05;;;;;;;7.75;4.35;;;;;;;;;;5012927;28;20014;-38
2022/10/02 02:47:42;;;;;;;6.50;4.55;;;;;;;;;;5012956;28;20032;-38
2022/10/02 02:50:10;;;;;;;7.32;4.68;;;;;;;;;;5012068;28;20033;-39
2022/10/02 02:52:41;;;;;;;4.80;3.97;;;;;;;;;;5011941;28;20057;-39
2022/10/02 02:55:06;;;;;;;5.22;3.92;;;;;;;;;;5013185;28;20046;-39
2022/10/02 02:57:35;;;;;;;6.70;4.90;;;;;;;;;;5013076;28;20065;-39
2022/10/02 03:00:01;;;;;;;9.40;5.00;;;;;;;;;;5012603;28;20239;-38
2022/10/02 03:02:26;;;;;;;6.43;4.10;;;;;;;;;;5013002;28;20377;-38
2022/10/02 03:04:51;;;;;;;6.60;4.10;;;;;;;;;;5012902;28;20100;-38
2022/10/02 03:07:17;;;;;;;6.18;4.32;;;;;;;;;;5012744;28;20461;-38
2022/10/02 03:09:52;;;;;;;6.10;3.75;;;;;;;;;;5011839;28;20142;-38
2022/10/02 03:12:25;;;;;;;6.90;4.18;;;;;;;;;;5012995;28;20057;-39
2022/10/02 03:14:53;;;;;;;9.27;4.40;;;;;;;;;;5012493;28;20461;-38
2022/10/02 03:17:28;;;;;;;9.13;4.10;;;;;;;;;;5012282;28;20025;-38
2022/10/02 03:20:13;;;;;;;6.20;3.92;;;;;;;;;;5012051;28;20080;-38
2022/10/02 03:22:40;;;;;;;7.82;4.13;;;;;;;;;;5021290;28;20034;-38
2022/10/02 03:25:20;;;;;;;5.95;3.58;;;;;;;;;;5012256;28;20109;-39
2022/10/02 03:27:52;;;;;;;8.52;4.43;;;;;;;;;;5012249;28;20413;-40
2022/10/02 03:30:19;;;;;;;5.80;3.72;;;;;;;;;;5011896;28;20038;-38
2022/10/02 03:32:45;;;;;;;4.80;3.45;;;;;;;;;;5018437;28;20018;-39
2022/10/02 03:35:11;;;;;;;9.07;4.07;;;;;;;;;;5030935;28;20033;-38
2022/10/02 03:37:38;;;;;;;12.07;4.10;;;;;;;;;;5027105;28;20462;-38
2022/10/02 03:40:05;;;;;;;8.30;3.90;;;;;;;;;;5011471;28;20022;-38
2022/10/02 03:42:31;;;;;;;8.65;3.88;;;;;;;;;;5012414;28;20380;-37
2022/10/02 03:44:56;;;;;;;6.70;3.92;;;;;;;;;;5011309;28;20108;-38
2022/10/02 03:47:21;;;;;;;7.80;3.70;;;;;;;;;;5012008;28;20105;-38
2022/10/02 03:49:47;;;;;;;6.25;3.92;;;;;;;;;;5011151;28;20037;-38
2022/10/02 03:52:15;;;;;;;11.70;4.30;;;;;;;;;;5012265;28;20029;-38
2022/10/02 03:54:41;;;;;;;9.25;4.45;;;;;;;;;;5012469;28;20228;-40
2022/10/02 03:57:11;;;;;;;7.03;4.30;;;;;;;;;;5011680;28;20492;-39
2022/10/02 03:59:39;;;;;;;8.13;4.22;;;;;;;;;;5011140;28;20365;-38
2022/10/02 04:02:06;;;;;;;8.82;4.70;;;;;;;;;;5012125;28;20026;-38
2022/10/02 04:04:39;;;;;;;11.65;4.28;;;;;;;;;;5011914;28;20025;-38
2022/10/02 04:07:09;;;;;;;8.18;5.00;;;;;;;;;;5011580;28;20018;-39
2022/10/02 04:09:55;;;;;;;10.23;4.80;;;;;;;;;;5010747;28;20060;-38
2022/10/02 04:12:25;;;;;;;9.40;4.80;;;;;;;;;;5011500;28;20030;-38
2022/10/02 04:14:59;;;;;;;8.55;4.57;;;;;;;;;;5011536;28;20045;-38
2022/10/02 04:17:29;;;;;;;8.68;4.97;;;;;;;;;;5011206;28;20030;-39
2022/10/02 04:20:15;;;;;;;9.50;5.47;;;;;;;;;;5011145;28;20018;-38
2022/10/02 04:22:51;;;;;;;8.73;5.28;;;;;;;;;;5012146;28;20100;-38
2022/10/02 04:25:20;;;;;;;12.10;5.18;;;;;;;;;;5011511;28;20033;-38
2022/10/02 04:27:46;;;;;;;10.07;5.03;;;;;;;;;;5011382;28;20037;-38
2022/10/02 04:30:16;;;;;;;8.83;5.27;;;;;;;;;;5010830;28;20038;-38
2022/10/02 04:32:41;;;;;;;19.25;5.03;;;;;;;;;;5018305;28;20334;-40
2022/10/02 04:35:14;;;;;;;10.93;5.22;;;;;;;;;;5031101;28;20366;-37
2022/10/02 04:37:39;;;;;;;10.68;4.65;;;;;;;;;;5030700;28;20025;-37
2022/10/02 04:40:08;;;;;;;12.57;5.43;;;;;;;;;;5030613;28;20029;-36
2022/10/02 04:42:40;;;;;;;10.73;5.43;;;;;;;;;;5031767;28;20943;-37
2022/10/02 04:45:05;;;;;;;9.32;4.20;;;;;;;;;;5031252;28;20100;-38
2022/10/02 04:47:36;;;;;;;7.93;4.87;;;;;;;;;;5030738;28;20112;-38
2022/10/02 04:50:04;;;;;;;9.57;4.85;;;;;;;;;;5030232;28;20293;-37
2022/10/02 04:52:42;;;;;;;7.93;4.20;;;;;;;;;;5031031;28;20079;-37
2022/10/02 04:55:24;;;;;;;12.80;3.85;;;;;;;;;;5030603;28;20040;-39
2022/10/02 04:57:58;;;;;;;6.80;3.85;;;;;;;;;;5030812;28;20025;-38
2022/10/02 05:00:24;;;;;;;9.38;4.97;;;;;;;;;;5030608;28;20654;-37
2022/10/02 05:02:49;;;;;;;7.70;3.90;;;;;;;;;;5030822;28;20080;-37
2022/10/02 05:05:24;;;;;;;9.70;4.43;;;;;;;;;;5030707;28;20553;-37
2022/10/02 05:07:49;;;;;;;11.80;4.10;;;;;;;;;;5030471;28;20308;-38
2022/10/02 05:10:23;;;;;;;7.93;4.30;;;;;;;;;;5033482;28;20152;-37
2022/10/02 05:12:48;;;;;;;8.10;5.10;;;;;;;;;;5034793;28;20104;-39
2022/10/02 05:15:26;;;;;;;8.93;3.97;;;;;;;;;;5034534;28;20064;-38
2022/10/02 05:18:10;;;;;;;9.57;4.35;;;;;;;;;;5034502;28;20270;-37
2022/10/02 05:20:44;;;;;;;7.75;4.10;;;;;;;;;;5034581;28;20104;-38
2022/10/02 05:23:24;;;;;;;6.15;3.22;;;;;;;;;;5034873;28;20025;-37
2022/10/02 05:26:04;;;;;;;4.97;3.10;;;;;;;;;;5034341;28;20075;-37
2022/10/02 05:28:42;;;;;;;7.90;3.95;;;;;;;;;;5033592;28;20398;-39
2022/10/02 05:31:14;;;;;;;8.40;4.57;;;;;;;;;;5034404;28;20021;-38
2022/10/02 05:44:02;;;;;;;11.88;4.95;;;;;;;;;;1553915;28;23436;-34
2022/10/02 05:46:34;;;;;;;9.43;4.55;;;;;;;;;;5059413;28;1332046;-33
2022/10/02 05:49:05;;;;;;;10.20;4.75;;;;;;;;;;5107920;28;20387;-33
2022/10/02 05:51:35;;;;;;;11.73;4.32;;;;;;;;;;5090496;28;20378;-33
2022/10/02 05:54:15;;;;;;;12.38;5.03;;;;;;;;;;5109775;28;20103;-33
2022/10/02 05:56:45;;;;;;;10.00;4.03;;;;;;;;;;5109334;28;20028;-33
2022/10/02 05:59:21;;;;;;;9.98;4.22;;;;;;;;;;5109188;28;20288;-33
2022/10/02 06:01:47;;;;;;;13.07;4.40;;;;;;;;;;5109048;28;20099;-34
2022/10/02 06:04:16;;;;;;;7.68;3.47;;;;;;;;;;5109233;28;20047;-33
2022/10/02 06:06:41;;;;;;;;;;;;;;;;;;5109160;28;20016;-34
2022/10/02 06:09:18;;;;;;;8.60;3.78;;;;;;;;;;5090961;28;20032;-33
2022/10/02 06:11:45;;;;;;;6.95;3.42;;;;;;;;;;5108635;28;20020;-33
2022/10/02 06:14:18;;;;;;;5.80;3.28;;;;;;;;;;5108432;28;20028;-34
2022/10/02 06:16:46;;;;;;;8.13;4.10;;;;;;;;;;5108704;28;20024;-33
2022/10/02 06:19:16;;;;;;;8.07;2.58;;;;;;;;;;5108626;28;20042;-34
2022/10/02 06:21:48;;;;;;;5.90;3.53;;;;;;;;;;5108877;28;20470;-33
2022/10/02 06:24:23;;;;;;;4.72;2.55;;;;;;;;;;5108373;28;20020;-34
2022/10/02 06:26:59;;;;;;;5.68;2.60;;;;;;;;;;5108306;28;20062;-33
2022/10/02 06:29:35;;;;;;;6.80;2.50;;;;;;;;;;5108225;28;20030;-34
2022/10/02 06:32:19;;;;;;;3.10;2.15;;;;;;;;;;5108379;28;20032;-34
2022/10/02 06:34:44;;;;;;;6.82;2.35;;;;;;;;;;5108423;28;20024;-33
2022/10/02 06:37:10;;;;;;;3.38;2.20;;;;;;;;;;5108089;28;20065;-34
2022/10/02 06:39:44;;;;;;;5.17;1.80;;;;;;;;;;5108305;28;20509;-34
2022/10/02 06:42:28;;;;;;;6.82;2.17;;;;;;;;;;5108143;28;20276;-34
2022/10/02 06:44:56;;;;;;;8.73;2.33;;;;;;;;;;5108474;28;20131;-34
2022/10/02 06:47:33;;;;;;;3.80;2.72;;;;;;;;;;5108004;28;20469;-34
2022/10/02 06:50:18;;;;;;;6.20;2.55;;;;;;;;;;5104380;28;20509;-34
2022/10/02 06:52:52;;;;;;;3.88;2.05;;;;;;;;;;5094736;28;20482;-33
2022/10/02 06:55:18;;;;;;;5.78;2.20;;;;;;;;;;5094710;28;20048;-33
2022/10/02 06:57:55;;;;;;;3.42;2.15;;;;;;;;;;5094463;28;20501;-34
2022/10/02 07:00:21;;;;;;;8.75;2.17;;;;;;;;;;5094050;28;20032;-34
2022/10/02 07:02:52;;;;;;;3.83;1.95;;;;;;;;;;5094456;28;20081;-34
2022/10/02 07:05:35;;;;;;;2.72;1.80;;;;;;;;;;5094114;28;20458;-34
2022/10/02 07:08:06;;;;;;;6.97;1.73;;;;;;;;;;5094330;28;20374;-33
2022/10/02 07:10:50;;;;;;;5.90;2.38;;;;;;;;;;5094262;28;20470;-33
2022/10/02 07:13:33;;;;;;;1.92;1.23;;;;;;;;;;5093850;28;20111;-33
2022/10/02 07:16:30;;;;;;;3.53;1.17;;;;;;;;;;5093786;28;20024;-34
2022/10/02 07:19:22;;;;;;;2.38;1.13;;;;;;;;;;5038563;28;20123;-33
2022/10/02 07:21:50;;;;;;;2.42;1.17;;;;;;;;;;5089121;28;20032;-34
2022/10/02 07:24:29;;;;;;;1.73;1.13;;;;;;;;;;5093883;28;20020;-34
2022/10/02 07:27:25;;;;;;;4.70;1.13;;;;;;;;;;5093706;28;20039;-33
2022/10/02 07:29:56;;;;;;;3.90;1.13;;;;;;;;;;5003891;28;20042;-33
2022/10/02 07:32:33;;;;;;;2.53;1.20;;;;;;;;;;5093894;28;20389;-33
2022/10/02 07:35:18;;;;;;;2.35;1.00;;;;;;;;;;5093911;28;20481;-33
2022/10/02 07:37:43;;;;;;;4.47;0.93;;;;;;;;;;5093790;28;20039;-33
2022/10/02 07:40:09;;;;;;;4.10;0.90;;;;;;;;;;5093222;28;20036;-34
2022/10/02 07:42:53;;;;;;;3.70;1.20;;;;;;;;;;5093773;28;20245;-33
2022/10/02 07:45:24;;;;;;;2.95;0.95;;;;;;;;;;5093060;28;20066;-34
2022/10/02 07:47:49;;;;;;;1.45;0.90;;;;;;;;;;5093660;28;20343;-33
2022/10/02 07:50:37;;;;;;;2.60;1.07;;;;;;;;;;5093607;28;20031;-33
2022/10/02 07:53:20;;;;;;;4.07;1.00;;;;;;;;;;5092851;28;20440;-33
2022/10/02 07:55:50;;;;;;;1.80;1.00;;;;;;;;;;5093113;28;20028;-34
2022/10/02 07:58:17;;;;;;;2.40;1.08;;;;;;;;;;5092883;28;20485;-34
2022/10/02 08:00:42;;;;;;;2.28;1.20;;;;;;;;;;5093400;28;20053;-33
2022/10/02 08:03:13;;;;;;;3.17;1.20;;;;;;;;;;5091873;28;20046;-33
2022/10/02 08:05:46;;;;;;;5.18;1.33;;;;;;;;;;5093070;28;20645;-33
2022/10/02 08:08:20;;;;;;;7.07;1.10;;;;;;;;;;5093553;28;20020;-33
2022/10/02 08:10:52;;;;;;;2.50;1.08;;;;;;;;;;5092938;28;20513;-34
2022/10/02 08:13:22;;;;;;;3.00;1.27;;;;;;;;;;5092957;28;20538;-33
2022/10/02 08:15:51;;;;;;;1.33;0.80;;;;;;;;;;5093150;28;20024;-33
2022/10/02 08:18:26;;;;;;;5.15;1.00;;;;;;;;;;5092907;28;20470;-33
2022/10/02 08:20:51;;;;;;;3.17;0.80;;;;;;;;;;5092574;28;20020;-41
2022/10/02 08:23:24;;;;;;;3.83;1.40;;;;;;;;;;5092836;28;20424;-33
2022/10/02 08:26:08;;;;;;;2.45;0.95;;;;;;;;;;5092354;28;20077;-34
2022/10/02 08:28:41;;;;;;;2.70;0.77;;;;;;;;;;5092783;28;20111;-34
2022/10/02 08:31:08;;;;;;;5.60;1.08;;;;;;;;;;5092865;28;20028;-34
2022/10/02 08:33:34;;;;;;;3.55;1.50;;;;;;;;;;5092470;28;20028;-33
2022/10/02 08:35:59;;;;;;;7.23;0.90;;;;;;;;;;5092772;28;20077;-33
2022/10/02 08:38:35;;;;;;;3.07;1.00;;;;;;;;;;5092537;28;20785;-34
2022/10/02 08:41:26;;;;;;;5.00;1.38;;;;;;;;;;5091945;28;20394;-34
2022/10/02 08:43:54;;;;;;;3.97;0.90;;;;;;;;;;5092797;28;20053;-34
2022/10/02 08:46:28;;;;;;;2.85;0.90;;;;;;;;;;5091908;28;20048;-34
2022/10/02 08:49:03;;;;;;;5.75;1.08;;;;;;;;;;5092416;28;20020;-34
2022/10/02 08:51:53;;;;;;;5.80;2.47;;;;;;;;;;5092425;28;20375;-33
2022/10/02 08:54:18;;;;;;;;;;;;;;;;;;5092898;28;20027;-33
2022/10/02 08:56:52;;;;;;;1.33;0.80;;;;;;;;;;5092000;28;19904;-33
2022/10/02 08:59:32;;;;;;;3.83;0.77;;;;;;;;;;5091878;28;20032;-34
2022/10/02 09:02:00;;;;;;;5.20;1.10;;;;;;;;;;5091907;28;20364;-33
2022/10/02 09:04:33;;;;;;;3.88;1.02;;;;;;;;;;5091889;28;20482;-33
2022/10/02 09:07:16;;;;;;;2.03;0.90;;;;;;;;;;5092007;28;20028;-34
2022/10/02 09:09:42;;;;;;;4.38;0.98;;;;;;;;;;5091908;28;20114;-33
2022/10/02 09:12:10;;;;;;;1.90;0.97;;;;;;;;;;5091361;28;20103;-34
2022/10/02 09:14:36;;;;;;;4.50;1.08;;;;;;;;;;5091695;28;20323;-33
2022/10/02 09:17:10;;;;;;;3.00;1.00;;;;;;;;;;5091818;28;20099;-33
2022/10/02 09:19:42;;;;;;;2.55;0.60;;;;;;;;;;5091905;28;20055;-33
2022/10/02 09:22:23;;;;;;;6.88;1.23;;;;;;;;;;5091711;28;20430;-33
2022/10/02 09:24:48;;;;;;;2.97;0.70;;;;;;;;;;5091720;28;20023;-33
2022/10/02 09:27:13;;;;;;;3.93;1.13;;;;;;;;;;5091896;28;20024;-33
2022/10/02 09:29:54;;;;;;;4.97;0.90;;;;;;;;;;5092109;28;20024;-33
2022/10/02 09:32:42;;;;;;;5.70;1.23;;;;;;;;;;5091158;28;20363;-33
2022/10/02 09:35:07;;;;;;;5.28;1.58;;;;;;;;;;5091116;28;20470;-33
2022/10/02 09:37:58;;;;;;;4.70;0.80;;;;;;;;;;5091455;28;20012;-33
2022/10/02 09:40:32;;;;;;;2.58;1.00;;;;;;;;;;5091465;28;20035;-33
2022/10/02 09:43:00;;;;;;;1.85;0.90;;;;;;;;;;5091535;28;20032;-34
2022/10/02 09:45:44;;;;;;;3.58;1.23;;;;;;;;;;5091355;28;20044;-33
2022/10/02 09:48:39;;;;;;;3.03;1.02;;;;;;;;;;5091375;28;20085;-33
2022/10/02 09:51:25;;;;;;;3.58;0.95;;;;;;;;;;5091724;28;20168;-33
2022/10/02 09:53:56;;;;;;;3.65;1.30;;;;;;;;;;5091408;28;20035;-33
2022/10/02 09:56:33;;;;;;;11.88;1.52;;;;;;;;;;5091092;28;20095;-33
2022/10/02 09:59:18;;;;;;;2.75;0.80;;;;;;;;;;5091490;28;20036;-33
2022/10/02 10:02:10;;;;;;;5.13;1.27;;;;;;;;;;5091355;28;20103;-33
2022/10/02 10:04:55;;;;;;;5.78;1.50;;;;;;;;;;5090604;28;20038;-33
2022/10/02 10:07:21;;;;;;;3.15;1.00;;;;;;;;;;5091605;28;20028;-33
2022/10/02 10:09:53;;;;;;;2.95;1.05;;;;;;;;;;5091108;28;20386;-34
2022/10/02 10:12:21;;;;;;;5.68;0.90;;;;;;;;;;5091214;28;20070;-33
2022/10/02 10:15:26;;;;;;;6.10;0.95;;;;;;;;;;5091285;28;20031;-33
2022/10/02 10:17:58;;;;;;;3.40;1.08;;;;;;;;;;4989177;28;20026;-32
2022/10/02 10:20:50;;;;;;;2.97;1.10;;;;;;;;;;4989245;28;20034;-33
2022/10/02 10:23:17;;;;;;;4.00;1.17;;;;;;;;;;5041852;28;20040;-33
2022/10/02 10:25:49;;;;;;;10.10;1.65;;;;;;;;;;5092288;28;20412;-33
2022/10/02 10:28:14;;;;;;;6.10;2.08;;;;;;;;;;5095095;28;20020;-33
2022/10/02 10:30:59;;;;;;;5.80;2.37;;;;;;;;;;5094824;28;20027;-34
2022/10/02 10:33:28;;;;;;;6.20;1.00;;;;;;;;;;5094360;28;20017;-33
2022/10/02 10:36:06;;;;;;;6.20;2.05;;;;;;;;;;5094433;28;20103;-32
2022/10/02 10:38:41;;;;;;;9.38;1.92;;;;;;;;;;5094924;28;20375;-33
2022/10/02 10:41:25;;;;;;;2.47;1.25;;;;;;;;;;5094567;28;20024;-33
2022/10/02 10:44:01;;;;;;;3.65;1.35;;;;;;;;;;5094724;28;20028;-34
2022/10/02 10:46:31;;;;;;;4.85;1.08;;;;;;;;;;5094734;28;20174;-33
2022/10/02 10:48:59;;;;;;;7.78;1.50;;;;;;;;;;5094478;28;20074;-34
2022/10/02 10:51:25;;;;;;;6.50;1.80;;;;;;;;;;5094418;28;20020;-33
2022/10/02 10:54:09;;;;;;;5.03;0.93;;;;;;;;;;5094321;28;20066;-33
2022/10/02 10:56:36;;;;;;;2.05;0.70;;;;;;;;;;5077629;28;20025;-33
2022/10/02 10:59:14;;;;;;;3.90;1.05;;;;;;;;;;5082182;28;20044;-33
2022/10/02 11:01:45;;;;;;;4.30;1.65;;;;;;;;;;5077083;28;20028;-33
2022/10/02 11:04:25;;;;;;;2.40;0.77;;;;;;;;;;5073670;28;20079;-33
2022/10/02 11:06:55;;;;;;;3.42;0.68;;;;;;;;;;5073272;28;20494;-34
2022/10/02 11:09:26;;;;;;;7.63;0.88;;;;;;;;;;5073079;28;20405;-34
2022/10/02 11:12:09;;;;;;;7.93;1.15;;;;;;;;;;5074100;28;20028;-33
2022/10/02 11:15:02;;;;;;;3.90;0.80;;;;;;;;;;5074017;28;20032;-33
2022/10/02 11:17:27;;;;;;;2.47;0.70;;;;;;;;;;5072425;28;20320;-33
2022/10/02 11:19:52;;;;;;;3.80;0.97;;;;;;;;;;5072205;28;20032;-33
2022/10/02 11:22:36;;;;;;;6.40;0.77;;;;;;;;;;5071816;28;20059;-35
2022/10/02 11:25:20;;;;;;;1.88;0.80;;;;;;;;;;5071834;28;20017;-33
2022/10/02 11:28:05;;;;;;;4.32;0.98;;;;;;;;;;5071632;28;20378;-34
2022/10/02 11:30:31;;;;;;;2.65;1.15;;;;;;;;;;5071421;28;20040;-33
2022/10/02 11:33:00;;;;;;;5.03;0.90;;;;;;;;;;5071406;28;20023;-34
2022/10/02 11:35:36;;;;;;;5.43;1.10;;;;;;;;;;5071339;28;20386;-33
2022/10/02 11:38:02;;;;;;;5.03;1.13;;;;;;;;;;5072369;28;20797;-33
2022/10/02 11:40:36;;;;;;;5.73;1.17;;;;;;;;;;5073134;28;20067;-33
2022/10/02 11:43:01;;;;;;;4.60;1.52;;;;;;;;;;5073459;28;20070;-33
2022/10/02 11:45:33;;;;;;;4.50;0.90;;;;;;;;;;5072740;28;20119;-33
2022/10/02 11:48:07;;;;;;;4.78;1.30;;;;;;;;;;5072806;28;20033;-33
2022/10/02 11:50:39;;;;;;;7.45;0.90;;;;;;;;;;5072911;28;20099;-33
2022/10/02 11:53:07;;;;;;;5.13;1.33;;;;;;;;;;5072564;28;20048;-33
2022/10/02 11:55:36;;;;;;;3.80;1.08;;;;;;;;;;5073116;28;20055;-33
2022/10/02 11:58:18;;;;;;;8.55;1.13;;;;;;;;;;5073128;28;20025;-33
2022/10/02 12:01:04;;;;;;;3.35;0.80;;;;;;;;;;5072549;28;20029;-33
2022/10/02 12:03:35;;;;;;;6.30;1.00;;;;;;;;;;5072501;28;20149;-33
2022/10/02 12:06:16;;;;;;;3.47;0.90;;;;;;;;;;5073033;28;20024;-33
2022/10/02 12:08:43;;;;;;;1.60;0.73;;;;;;;;;;5054440;28;20082;-34
2022/10/02 12:11:24;;;;;;;4.70;1.05;;;;;;;;;;5072745;28;20012;-33
2022/10/02 12:13:50;;;;;;;3.20;0.85;;;;;;;;;;5072359;28;20035;-33
2022/10/02 12:16:24;;;;;;;4.77;0.90;;;;;;;;;;5072810;28;20020;-34
2022/10/02 12:18:56;;;;;;;7.65;1.10;;;;;;;;;;5072870;28;20040;-34
2022/10/02 12:27:32;;;;;;;6.32;1.10;;;;;;;;;;5017808;28;20033;-34
2022/10/02 12:30:09;;;;;;;4.03;0.90;;;;;;;;;;5072390;28;20024;-35
2022/10/02 12:32:51;;;;;;;4.40;1.50;;;;;;;;;;5072637;28;20048;-33
2022/10/02 12:35:19;;;;;;;4.35;1.27;;;;;;;;;;5072698;28;20080;-33
2022/10/02 12:37:44;;;;;;;2.90;1.13;;;;;;;;;;5072299;28;20024;-33
2022/10/02 12:40:09;;;;;;;4.33;1.03;;;;;;;;;;5071632;28;20285;-34
2022/10/02 12:42:50;;;;;;;6.50;1.13;;;;;;;;;;5072585;28;20017;-33
2022/10/02 12:45:18;;;;;;;3.33;1.20;;;;;;;;;;5071796;28;20057;-34
2022/10/02 12:47:59;;;;;;;7.10;2.15;;;;;;;;;;5072181;28;20410;-33
2022/10/02 12:50:24;;;;;;;2.58;1.35;;;;;;;;;;5071913;28;20467;-33
2022/10/02 12:53:08;;;;;;;5.72;1.50;;;;;;;;;;5071985;28;20062;-33
2022/10/02 12:55:36;;;;;;;4.03;1.17;;;;;;;;;;5072699;28;20362;-33
2022/10/02 12:58:01;;;;;;;4.35;1.40;;;;;;;;;;5071805;28;20024;-34
2022/10/02 13:00:39;;;;;;;8.60;1.50;;;;;;;;;;5071892;28;20086;-33
2022/10/02 13:03:11;;;;;;;3.75;1.00;;;;;;;;;;5071795;28;20257;-33
2022/10/02 13:05:45;;;;;;;1.73;0.80;;;;;;;;;;5071831;28;20467;-33
2022/10/02 13:08:22;;;;;;;3.40;1.20;;;;;;;;;;5071310;28;20029;-33
2022/10/02 13:11:06;;;;;;;2.10;0.80;;;;;;;;;;5072217;28;20020;-33
2022/10/02 13:13:42;;;;;;;5.70;1.17;;;;;;;;;;5071874;28;20021;-33
2022/10/02 13:16:27;;;;;;;5.82;1.17;;;;;;;;;;5071505;28;20039;-33
2022/10/02 13:19:10;;;;;;;2.95;0.80;;;;;;;;;;5071220;28;20463;-33
2022/10/02 13:21:36;;;;;;;2.55;0.93;;;;;;;;;;5071302;28;20364;-33
2022/10/02 13:24:08;;;;;;;2.00;1.10;;;;;;;;;;5071472;28;20035;-33
2022/10/02 13:26:33;;;;;;;4.28;1.33;;;;;;;;;;5071759;28;20337;-33
2022/10/02 13:29:08;;;;;;;8.27;1.30;;;;;;;;;;5071705;28;20028;-33
2022/10/02 13:31:52;;;;;;;2.75;0.57;;;;;;;;;;5071470;28;20020;-33
2022/10/02 13:34:36;;;;;;;3.47;0.90;;;;;;;;;;5071849;28;20021;-33
2022/10/02 13:37:16;;;;;;;3.35;0.95;;;;;;;;;;5071888;28;20024;-33
2022/10/02 13:39:59;;;;;;;5.70;0.85;;;;;;;;;;5071144;28;20024;-33
2022/10/02 13:42:25;;;;;;;7.25;1.00;;;;;;;;;;5071160;28;20055;-33
2022/10/02 13:44:59;;;;;;;2.77;0.90;;;;;;;;;;5071598;28;20086;-33
2022/10/02 13:47:40;;;;;;;2.67;0.80;;;;;;;;;;5070735;28;20468;-33
2022/10/02 13:50:17;;;;;;;2.42;0.80;;;;;;;;;;5071152;28;20013;-34
2022/10/02 13:53:11;;;;;;;2.70;1.13;;;;;;;;;;5071115;28;20442;-33
2022/10/02 13:55:43;;;;;;;3.88;1.65;;;;;;;;;;4982395;28;20474;-34
2022/10/02 13:58:11;;;;;;;3.22;1.52;;;;;;;;;;5071136;28;20020;-33
2022/10/02 14:00:42;;;;;;;2.42;1.60;;;;;;;;;;5072100;28;20454;-33
2022/10/02 14:03:20;;;;;;;2.75;1.20;;;;;;;;;;5075368;28;20406;-34
2022/10/02 14:05:50;;;;;;;3.33;1.20;;;;;;;;;;5075296;28;20116;-33
2022/10/02 14:08:34;;;;;;;3.42;0.90;;;;;;;;;;5075086;28;20029;-33
2022/10/02 14:10:59;;;;;;;1.70;1.00;;;;;;;;;;5074354;28;20029;-33
2022/10/02 14:13:24;;;;;;;3.70;1.73;;;;;;;;;;5074934;28;20035;-33
2022/10/02 14:15:55;;;;;;;1.93;0.70;;;;;;;;;;5074951;28;20023;-33
2022/10/02 14:18:27;;;;;;;4.90;1.65;;;;;;;;;;5074901;28;20453;-33
2022/10/02 14:21:06;;;;;;;2.95;1.80;;;;;;;;;;5075160;28;20336;-33
2022/10/02 14:23:50;;;;;;;4.72;2.22;;;;;;;;;;5075495;28;20456;-33
2022/10/02 14:26:24;;;;;;;1.52;1.00;;;;;;;;;;5074726;28;20321;-33
2022/10/02 14:29:00;;;;;;;3.63;1.20;;;;;;;;;;5074722;28;20481;-34
2022/10/02 14:31:46;;;;;;;2.25;0.80;;;;;;;;;;5074735;28;20060;-33
2022/10/02 14:34:30;;;;;;;3.42;1.60;;;;;;;;;;5023103;28;20051;-33
2022/10/02 14:37:15;;;;;;;2.65;1.52;;;;;;;;;;5074643;28;20017;-33
2022/10/02 14:39:41;;;;;;;5.30;1.70;;;;;;;;;;5074206;28;20427;-33
2022/10/02 14:42:12;;;;;;;4.35;1.45;;;;;;;;;;5074474;28;20105;-34
2022/10/02 14:44:38;;;;;;;6.65;2.78;;;;;;;;;;5074468;28;20081;-33
2022/10/02 14:47:12;;;;;;;7.43;3.45;;;;;;;;;;5074844;28;20470;-33
2022/10/02 14:49:46;;;;;;;7.10;2.75;;;;;;;;;;5074270;28;20021;-33
2022/10/02 14:52:35;;;;;;;7.05;2.30;;;;;;;;;;5073917;28;20422;-33
2022/10/02 14:55:00;;;;;;;8.30;3.55;;;;;;;;;;5074334;28;20050;-33
2022/10/02 14:57:26;;;;;;;7.37;2.77;;;;;;;;;;5074474;28;20464;-34
2022/10/02 15:00:09;;;;;;;5.47;2.23;;;;;;;;;;5074138;28;20276;-33
2022/10/02 15:03:01;;;;;;;7.50;1.60;;;;;;;;;;5073799;28;20728;-33
2022/10/02 15:05:35;;;;;;;2.75;1.20;;;;;;;;;;5035226;28;20032;-33
2022/10/02 15:08:03;;;;;;;3.70;2.08;;;;;;;;;;5074128;28;20032;-33
2022/10/02 15:10:32;;;;;;;6.00;2.03;;;;;;;;;;5073958;28;20059;-33
2022/10/02 15:13:04;;;;;;;2.22;1.13;;;;;;;;;;5073520;28;20017;-34
2022/10/02 15:15:37;;;;;;;3.45;1.02;;;;;;;;;;5073689;28;20021;-33
2022/10/02 15:18:35;;;;;;;3.47;1.55;;;;;;;;;;5073750;28;20486;-33
2022/10/02 15:21:00;;;;;;;3.17;1.13;;;;;;;;;;5018936;28;20142;-33
2022/10/02 15:23:32;;;;;;;1.93;0.80;;;;;;;;;;5073593;28;20027;-33
2022/10/02 15:26:00;;;;;;;3.33;0.70;;;;;;;;;;5073376;28;20601;-33
2022/10/02 15:28:25;;;;;;;3.55;0.80;;;;;;;;;;5073436;28;20044;-33
2022/10/02 15:31:09;;;;;;;7.13;1.07;;;;;;;;;;5073881;28;20494;-33
2022/10/02 15:33:34;;;;;;;3.17;1.00;;;;;;;;;;5073733;28;20031;-33
2022/10/02 15:36:02;;;;;;;4.90;1.08;;;;;;;;;;5073772;28;20024;-33